Time;durP1;ratioP1;P1;durP2;ratioP2;P2;SDS_P1;SDS_P2;PMS_P1;PMS_P2;Temp;Humidity;BMP_temperature;BMP_pressure;BME280_temperature;BME280_humidity;BME280_pressure;Samples;Min_cycle;Max_cycle;Signal;HPM_P1;HPM_P2
2024/01/21 00:01:25;;;;;;;9.68;4.53;;;0.00;98.70;;;0.80;57.74;101716.53;4943146;29;20114;-78
2024/01/21 00:03:50;;;;;;;8.80;4.10;;;0.00;97.60;;;0.92;57.51;101725.38;4946000;28;20458;-78
2024/01/21 00:06:16;;;;;;;8.77;4.28;;;0.10;97.60;;;0.90;57.29;101714.78;4952988;28;20072;-78
2024/01/21 00:08:43;;;;;;;8.07;4.75;;;0.10;97.50;;;0.89;56.77;101710.38;4963895;28;20031;-78
2024/01/21 00:11:08;;;;;;;9.90;3.75;;;0.20;96.90;;;1.03;56.21;101695.81;4955495;28;20035;-78
2024/01/21 00:13:34;;;;;;;8.80;3.97;;;0.20;96.80;;;0.96;55.92;101695.44;4959771;28;20805;-78
2024/01/21 00:16:00;;;;;;;9.25;3.40;;;0.20;96.90;;;0.95;55.94;101683.00;4950127;28;20035;-79
2024/01/21 00:18:25;;;;;;;7.63;3.55;;;0.20;96.60;;;0.86;55.88;101662.28;4961815;28;20376;-79
2024/01/21 00:20:51;;;;;;;7.60;3.95;;;0.20;96.70;;;1.06;55.67;101692.00;4943611;28;20031;-79
2024/01/21 00:23:17;;;;;;;10.27;3.95;;;0.20;96.40;;;1.05;55.85;101684.91;4957160;28;20036;-78
2024/01/21 00:25:43;;;;;;;10.40;3.88;;;0.20;96.50;;;1.11;55.71;101679.88;4939132;28;20040;-79
2024/01/21 00:28:08;;;;;;;7.38;3.55;;;0.20;96.20;;;1.02;55.79;101666.34;4953010;28;20039;-79
2024/01/21 00:30:35;;;;;;;7.60;3.83;;;0.20;96.40;;;1.18;55.78;101677.53;4937085;29;20125;-78
2024/01/21 00:33:00;;;;;;;7.38;3.63;;;0.30;96.20;;;1.15;56.21;101669.72;4937681;29;20063;-78
2024/01/21 00:35:26;;;;;;;7.65;4.05;;;0.30;96.80;;;1.31;55.99;101663.03;4960277;28;20407;-79
2024/01/21 00:37:52;;;;;;;8.02;3.72;;;0.30;96.70;;;0.96;56.25;101643.56;4943245;29;20047;-79
2024/01/21 00:40:18;;;;;;;6.93;3.08;;;0.30;96.70;;;1.06;56.55;101657.03;4968285;28;20106;-78
2024/01/21 00:42:44;;;;;;;8.98;4.10;;;0.30;96.40;;;1.02;56.43;101642.16;4945376;28;20130;-79
2024/01/21 00:45:09;;;;;;;8.55;4.00;;;0.20;96.70;;;0.94;56.79;101649.03;4958195;28;20035;-78
2024/01/21 00:47:35;;;;;;;9.38;3.78;;;0.10;97.10;;;0.93;56.96;101652.72;4963329;28;20452;-79
2024/01/21 00:50:03;;;;;;;7.18;3.55;;;0.00;97.40;;;0.45;57.17;101669.22;4938020;29;20134;-78
2024/01/21 00:52:28;;;;;;;9.25;3.70;;;0.00;97.30;;;0.69;56.59;101661.84;4959415;28;20031;-78
2024/01/21 00:54:54;;;;;;;8.50;4.00;;;-0.10;97.30;;;0.19;59.51;101670.38;4946627;28;20058;-78
2024/01/21 00:57:20;;;;;;;9.48;3.70;;;-0.10;97.90;;;0.05;59.06;101652.69;4944986;28;20403;-77
2024/01/21 00:59:46;;;;;;;8.80;3.92;;;-0.20;97.50;;;0.33;59.25;101680.00;4941955;29;20035;-78
2024/01/21 01:02:12;;;;;;;8.23;3.88;;;-0.20;97.60;;;0.16;59.45;101669.75;4947023;29;20049;-78
2024/01/21 01:04:37;;;;;;;8.88;3.83;;;-0.20;97.60;;;0.22;59.17;101672.81;4931820;28;20043;-78
2024/01/21 01:07:03;;;;;;;10.02;3.90;;;-0.20;97.30;;;0.11;59.34;101646.81;4936186;29;20314;-78
2024/01/21 01:09:29;;;;;;;7.95;3.58;;;-0.10;97.10;;;0.22;59.58;101674.63;4948773;29;20050;-79
2024/01/21 01:11:55;;;;;;;9.98;4.07;;;-0.10;97.80;;;0.17;60.12;101666.97;4936168;29;20040;-79
2024/01/21 01:14:20;;;;;;;9.00;4.05;;;-0.10;97.50;;;0.17;59.95;101672.31;4949526;29;20042;-78
2024/01/21 01:16:46;;;;;;;6.93;3.97;;;-0.10;97.50;;;0.15;59.96;101674.28;4961945;28;20094;-78
2024/01/21 01:19:12;;;;;;;8.70;4.00;;;-0.10;97.60;;;0.28;60.33;101663.41;4938616;28;20042;-78
2024/01/21 01:21:37;;;;;;;9.43;3.78;;;-0.10;97.60;;;0.25;59.37;101653.75;4935932;29;20051;-78
2024/01/21 01:24:03;;;;;;;9.77;3.55;;;-0.10;97.10;;;0.41;59.50;101656.06;4936257;29;20495;-79
2024/01/21 01:26:29;;;;;;;7.75;3.85;;;0.00;97.10;;;0.31;58.96;101644.38;4944479;28;20044;-78
2024/01/21 01:28:55;;;;;;;9.05;3.83;;;0.00;96.90;;;0.39;58.79;101638.34;4966523;28;20038;-78
2024/01/21 01:31:21;;;;;;;7.30;3.00;;;0.00;96.70;;;0.25;59.02;101623.38;4958164;28;20372;-78
2024/01/21 01:33:46;;;;;;;7.18;3.55;;;0.00;96.60;;;0.43;57.90;101635.28;4940995;29;20038;-78
2024/01/21 01:36:12;;;;;;;9.57;3.53;;;0.10;96.00;;;0.30;57.65;101623.00;4951161;28;20106;-79
2024/01/21 01:38:39;;;;;;;7.57;3.45;;;0.10;95.90;;;0.40;57.50;101632.03;4939235;29;20035;-79
2024/01/21 01:41:04;;;;;;;6.22;2.95;;;0.00;95.90;;;0.26;58.13;101620.56;4958001;28;20035;-78
2024/01/21 01:43:30;;;;;;;7.82;3.42;;;0.00;96.40;;;0.39;57.87;101636.53;4937469;28;20130;-78
2024/01/21 01:46:00;;;;;;;5.97;3.38;;;0.00;95.90;;;0.28;58.02;101617.78;4944890;29;20484;-79
2024/01/21 01:48:28;;;;;;;6.60;3.00;;;-0.10;96.60;;;0.41;58.50;101639.94;4941903;28;20063;-78
2024/01/21 01:50:58;;;;;;;7.60;3.08;;;-0.10;96.80;;;0.23;58.26;101614.59;4958533;28;20036;-78
2024/01/21 01:53:23;;;;;;;6.32;2.95;;;-0.20;96.70;;;0.30;58.72;101625.69;4939387;29;20075;-78
2024/01/21 01:55:50;;;;;;;5.53;2.78;;;-0.10;96.70;;;0.36;57.55;101623.38;4950896;28;20039;-78
2024/01/21 01:58:18;;;;;;;5.80;2.90;;;-0.10;96.10;;;0.33;58.39;101618.25;4939956;29;20054;-78
2024/01/21 02:00:45;;;;;;;6.57;2.72;;;0.00;96.30;;;0.38;58.31;101618.72;4950036;28;20043;-78
2024/01/21 02:03:12;;;;;;;8.52;3.35;;;0.00;96.80;;;0.14;59.67;101619.75;4941681;28;20040;-77
2024/01/21 02:05:38;;;;;;;5.78;2.72;;;-0.10;97.40;;;-0.09;60.34;101613.56;4956684;28;20040;-77
2024/01/21 02:08:04;;;;;;;6.13;3.05;;;-0.20;97.30;;;-0.04;60.93;101626.56;4941814;29;20039;-78
2024/01/21 02:10:30;;;;;;;6.07;2.70;;;-0.30;97.50;;;-0.06;60.46;101616.00;4945818;28;20032;-77
2024/01/21 02:12:56;;;;;;;5.22;2.65;;;-0.30;97.60;;;0.09;60.89;101635.38;4943844;28;20031;-78
2024/01/21 02:15:23;;;;;;;7.05;2.85;;;-0.40;98.10;;;-0.06;60.22;101631.22;4950564;28;20035;-80
2024/01/21 02:17:49;;;;;;;5.70;2.50;;;-0.50;97.50;;;0.05;60.31;101631.22;4956607;28;20039;-79
2024/01/21 02:20:15;;;;;;;7.15;2.63;;;-0.40;97.60;;;0.12;59.44;101627.06;4962892;28;20043;-78
2024/01/21 02:22:42;;;;;;;5.25;2.53;;;-0.40;97.10;;;0.21;58.83;101612.03;4947108;28;20127;-80
2024/01/21 02:25:09;;;;;;;5.18;2.60;;;-0.40;96.80;;;0.10;57.66;101590.56;4950587;28;20531;-79
2024/01/21 02:27:38;;;;;;;6.60;2.65;;;-0.40;96.50;;;0.11;57.53;101585.09;4944044;29;20495;-79
2024/01/21 02:30:05;;;;;;;5.82;2.20;;;-0.40;96.10;;;0.08;56.65;101566.56;4948682;28;20039;-79
2024/01/21 02:32:30;;;;;;;5.78;2.05;;;-0.40;95.50;;;0.17;56.24;101578.38;4963647;28;20081;-79
2024/01/21 02:34:56;;;;;;;5.60;2.17;;;-0.40;95.40;;;0.19;55.68;101559.47;4959727;28;20459;-79
2024/01/21 02:37:22;;;;;;;3.95;2.03;;;-0.30;94.70;;;0.30;55.09;101558.56;4937458;28;20335;-79
2024/01/21 02:39:48;;;;;;;4.15;1.90;;;-0.20;94.70;;;0.38;54.65;101550.72;4938358;29;20039;-79
2024/01/21 02:42:13;;;;;;;3.85;1.88;;;-0.20;94.30;;;0.41;54.17;101545.97;4943814;28;20400;-79
2024/01/21 02:44:39;;;;;;;6.65;2.15;;;-0.10;94.00;;;0.40;54.21;101533.53;4944445;29;20071;-79
2024/01/21 02:47:05;;;;;;;4.32;2.15;;;-0.20;93.70;;;0.12;54.32;101527.75;4965772;28;20104;-78
2024/01/21 02:49:31;;;;;;;4.63;2.50;;;-0.20;93.50;;;-0.10;56.41;101541.22;4944561;28;20495;-78
2024/01/21 02:51:57;;;;;;;4.97;2.25;;;-0.20;95.40;;;-0.22;58.88;101565.41;4963568;28;20039;-79
2024/01/21 02:54:24;;;;;;;4.72;2.10;;;-0.30;96.50;;;-0.25;57.11;101533.47;4936847;29;20493;-79
2024/01/21 02:56:50;;;;;;;5.97;2.13;;;-0.30;94.30;;;0.17;57.02;101554.22;4944997;29;20352;-79
2024/01/21 02:59:16;;;;;;;3.83;1.73;;;-0.20;95.10;;;0.14;55.48;101544.59;4941185;28;20071;-79
2024/01/21 03:01:42;;;;;;;5.07;1.98;;;-0.10;93.90;;;0.38;55.54;101551.59;4938433;29;20079;-79
2024/01/21 03:04:12;;;;;;;3.35;1.75;;;-0.10;94.40;;;0.43;54.67;101535.94;4943858;29;20194;-79
2024/01/21 03:06:39;;;;;;;4.13;2.00;;;0.00;94.10;;;0.40;55.20;101530.84;4947007;29;20453;-78
2024/01/21 03:09:04;;;;;;;4.13;1.90;;;0.00;94.00;;;0.34;54.59;101523.31;4944933;28;20070;-78
2024/01/21 03:11:32;;;;;;;4.57;1.98;;;0.10;93.90;;;0.34;54.52;101523.31;4950710;28;20066;-79
2024/01/21 03:13:58;;;;;;;;;;;0.10;93.60;;;0.36;55.06;101512.41;4948010;28;20395;-79
2024/01/21 03:16:24;;;;;;;4.25;2.00;;;0.10;93.50;;;0.28;54.61;101496.97;4952785;28;19922;-79
2024/01/21 03:18:50;;;;;;;6.10;2.08;;;0.10;93.00;;;0.13;54.37;101465.06;4940957;29;20055;-79
2024/01/21 03:21:15;;;;;;;4.05;1.92;;;0.20;92.70;;;0.18;53.12;101464.69;4938203;29;20448;-79
2024/01/21 03:23:41;;;;;;;4.07;2.13;;;0.20;92.10;;;0.24;54.13;101474.91;4942961;29;20054;-79
2024/01/21 03:26:07;;;;;;;3.53;1.95;;;0.20;92.70;;;0.26;54.09;101482.81;4942983;28;20043;-79
2024/01/21 03:28:33;;;;;;;5.00;2.45;;;0.20;92.40;;;0.32;53.39;101490.38;4959559;28;20107;-79
2024/01/21 03:30:59;;;;;;;5.28;2.33;;;0.20;92.40;;;0.38;54.15;101471.06;4942353;29;20374;-79
2024/01/21 03:33:25;;;;;;;5.47;2.35;;;0.10;93.20;;;0.42;53.59;101491.28;4945959;29;20372;-78
2024/01/21 03:35:52;;;;;;;5.32;2.47;;;0.10;92.90;;;0.37;54.04;101473.84;4946084;29;20043;-79
2024/01/21 03:38:18;;;;;;;5.43;2.28;;;0.00;93.10;;;0.24;53.45;101469.53;4958223;28;20078;-79
2024/01/21 03:40:43;;;;;;;5.45;2.50;;;0.00;92.60;;;0.25;53.66;101465.00;4961537;28;20166;-78
2024/01/21 03:43:09;;;;;;;5.32;2.30;;;0.00;92.40;;;0.13;53.93;101438.22;4947909;28;20069;-78
2024/01/21 03:45:35;;;;;;;4.72;2.17;;;0.00;92.40;;;0.35;52.69;101441.78;4943934;28;20562;-79
2024/01/21 03:48:01;;;;;;;4.38;1.85;;;0.10;91.60;;;0.25;51.84;101411.31;4945182;28;20059;-79
2024/01/21 03:50:27;;;;;;;6.20;2.30;;;0.20;91.20;;;0.43;52.32;101419.66;4941148;29;20400;-79
2024/01/21 03:52:52;;;;;;;4.47;2.05;;;0.30;91.70;;;0.46;52.87;101431.94;4944387;29;20053;-79
2024/01/21 03:55:20;;;;;;;6.40;2.50;;;0.30;92.10;;;0.45;53.79;101427.56;4942556;29;20049;-79
2024/01/21 03:57:46;;;;;;;5.78;2.80;;;0.30;92.80;;;0.26;53.02;101410.31;4949203;29;20384;-79
2024/01/21 04:00:14;;;;;;;5.47;2.95;;;0.20;92.20;;;0.17;55.44;101441.50;4956857;28;20073;-79
2024/01/21 04:02:39;;;;;;;6.80;2.70;;;0.10;93.70;;;0.07;56.32;101449.47;4945795;28;20046;-79
2024/01/21 04:05:06;;;;;;;5.95;2.70;;;-0.10;94.10;;;-0.10;56.48;101463.44;4942882;29;20047;-79
2024/01/21 04:07:33;;;;;;;6.83;3.17;;;-0.30;94.40;;;-0.13;57.47;101477.97;4956944;28;20039;-78
2024/01/21 04:09:59;;;;;;;6.50;2.83;;;-0.30;94.50;;;-0.16;57.58;101470.16;4945539;29;20041;-78
2024/01/21 04:12:25;;;;;;;5.90;3.00;;;-0.30;94.60;;;-0.25;57.68;101461.06;4945451;28;20028;-79
2024/01/21 04:14:51;;;;;;;5.60;2.90;;;-0.30;94.50;;;-0.27;57.60;101446.88;4936624;29;20038;-79
2024/01/21 04:17:17;;;;;;;5.45;3.00;;;-0.30;94.20;;;-0.26;58.17;101456.66;4936755;29;20044;-78
2024/01/21 04:19:43;;;;;;;6.10;2.90;;;-0.40;95.20;;;-0.24;59.44;101468.13;4939930;28;20066;-79
2024/01/21 04:22:09;;;;;;;6.90;2.97;;;-0.40;95.30;;;-0.23;60.19;101471.63;4944758;29;20094;-78
2024/01/21 04:24:35;;;;;;;4.43;2.40;;;-0.40;96.10;;;-0.24;59.09;101443.97;4947219;28;20054;-78
2024/01/21 04:27:00;;;;;;;4.78;2.75;;;-0.40;95.70;;;-0.23;58.51;101429.59;4942873;29;20043;-78
2024/01/21 04:29:26;;;;;;;6.22;3.00;;;-0.40;95.40;;;-0.07;57.73;101433.66;4936561;29;20039;-79
2024/01/21 04:31:52;;;;;;;5.47;2.50;;;-0.30;95.40;;;0.08;58.69;101442.25;4936633;29;20035;-78
2024/01/21 04:34:17;;;;;;;6.15;2.50;;;-0.30;95.40;;;0.10;55.97;101408.97;4940085;29;20098;-79
2024/01/21 04:36:43;;;;;;;4.35;2.28;;;-0.30;93.20;;;0.37;52.92;101366.47;4937921;28;20042;-78
2024/01/21 04:39:09;;;;;;;4.63;2.20;;;-0.10;92.00;;;0.46;51.94;101354.94;4951585;28;20036;-78
2024/01/21 04:41:35;;;;;;;4.90;2.35;;;0.10;91.40;;;0.36;51.87;101344.16;4941536;28;20039;-78
2024/01/21 04:44:01;;;;;;;4.30;2.42;;;0.20;91.00;;;0.63;50.60;101325.75;4937863;29;20444;-79
2024/01/21 04:46:27;;;;;;;3.60;2.03;;;0.30;90.50;;;0.59;50.09;101306.41;4939442;29;20046;-80
2024/01/21 04:48:53;;;;;;;5.47;2.45;;;0.30;89.50;;;0.62;49.45;101300.75;4946399;29;20032;-79
2024/01/21 04:51:18;;;;;;;5.38;2.38;;;0.40;89.70;;;0.59;50.05;101309.06;4940749;29;20448;-78
2024/01/21 04:53:44;;;;;;;5.47;2.72;;;0.30;89.20;;;0.50;49.96;101291.06;4945442;28;20055;-78
2024/01/21 04:56:17;;;;;;;5.03;2.35;;;0.30;89.40;;;0.71;49.55;101296.41;4945048;28;20094;-80
2024/01/21 04:58:44;;;;;;;5.60;2.30;;;0.30;88.50;;;0.61;49.63;101279.38;4938538;29;20134;-79
2024/01/21 05:03:42;;;;;;;4.30;2.13;;;0.20;90.00;;;0.49;50.81;101300.97;5051558;28;20785;-79
2024/01/21 05:06:08;;;;;;;4.50;2.40;;;0.10;90.60;;;0.49;50.38;101281.31;5046340;28;20045;-79
2024/01/21 05:08:34;;;;;;;4.30;2.35;;;0.10;90.10;;;0.58;48.88;101256.34;5045205;28;20095;-80
2024/01/21 05:11:00;;;;;;;5.55;2.50;;;0.20;88.90;;;0.88;47.86;101251.91;5044982;28;20193;-80
2024/01/21 05:13:25;;;;;;;4.45;2.25;;;0.30;87.00;;;0.86;46.91;101210.91;5045480;28;20097;-80
2024/01/21 05:15:51;;;;;;;3.83;1.85;;;0.50;84.80;;;1.14;45.93;101219.13;5046166;28;20033;-80
2024/01/21 05:18:19;;;;;;;6.60;2.72;;;0.70;84.20;;;1.21;45.41;101190.69;5045816;28;20033;-80
2024/01/21 05:20:45;;;;;;;;;;;0.90;82.90;;;1.42;44.88;101176.25;5045931;28;20040;-80
2024/01/21 05:23:10;;;;;;;5.13;2.50;;;1.00;82.00;;;1.32;44.91;101167.31;5044713;28;19960;-80
2024/01/21 05:25:36;;;;;;;6.07;2.70;;;1.00;82.80;;;1.33;44.40;101169.88;5045255;28;20067;-80
2024/01/21 05:28:02;;;;;;;6.65;3.10;;;1.10;81.60;;;1.43;44.95;101197.59;5045592;28;20037;-81
2024/01/21 05:30:28;;;;;;;5.57;2.63;;;1.10;82.40;;;1.35;45.03;101193.94;5046059;28;20037;-80
2024/01/21 05:32:53;;;;;;;7.65;2.92;;;1.10;82.30;;;1.42;45.20;101187.00;5045564;28;20082;-80
2024/01/21 05:35:19;;;;;;;6.80;2.90;;;1.10;82.60;;;1.33;45.22;101194.06;5044060;28;20111;-80
2024/01/21 05:37:45;;;;;;;6.70;2.78;;;1.00;82.90;;;1.37;45.83;101213.47;5044782;28;20047;-80
2024/01/21 05:40:11;;;;;;;5.32;2.80;;;0.90;84.20;;;1.28;45.96;101207.94;5043151;28;20037;-80
2024/01/21 05:42:36;;;;;;;5.53;2.65;;;0.90;83.70;;;1.26;45.92;101190.28;5045325;28;20037;-79
2024/01/21 05:45:03;;;;;;;4.95;2.75;;;0.80;83.40;;;1.15;45.61;101162.53;5043958;28;20060;-79
2024/01/21 05:47:29;;;;;;;6.00;3.10;;;0.80;82.30;;;1.40;44.84;101181.75;5024612;28;20041;-79
2024/01/21 05:49:55;;;;;;;6.15;2.70;;;0.90;81.90;;;1.49;44.49;101165.75;5041457;28;20102;-81
2024/01/21 05:52:20;;;;;;;7.22;2.70;;;0.80;82.00;;;1.32;45.02;101161.94;5028309;28;20119;-81
2024/01/21 05:54:46;;;;;;;6.78;2.95;;;0.90;82.10;;;1.23;45.48;101159.13;5048577;28;20439;-80
2024/01/21 05:57:12;;;;;;;4.65;2.70;;;0.90;82.10;;;1.20;45.67;101164.78;5048901;28;20041;-81
2024/01/21 05:59:38;;;;;;;7.03;3.20;;;0.90;82.90;;;1.19;45.53;101156.84;5050788;28;20676;-80
2024/01/21 06:02:07;;;;;;;6.10;3.22;;;1.00;82.60;;;1.13;46.43;101152.94;5049410;28;20060;-79
2024/01/21 06:04:33;;;;;;;6.00;2.88;;;1.00;82.50;;;1.24;45.40;101147.38;5051226;28;20041;-79
2024/01/21 06:06:59;;;;;;;5.43;2.60;;;1.00;81.60;;;1.36;45.17;101148.06;5050558;28;20041;-81
2024/01/21 06:09:25;;;;;;;6.45;2.83;;;1.00;82.10;;;1.19;45.61;101135.34;5051266;28;20488;-78
2024/01/21 06:11:51;;;;;;;7.03;2.92;;;1.00;82.20;;;1.25;45.93;101146.38;5033619;28;20088;-76
2024/01/21 06:14:16;;;;;;;4.97;2.90;;;1.00;83.10;;;1.09;46.59;101132.69;5045263;28;20064;-77
2024/01/21 06:16:42;;;;;;;6.95;3.00;;;1.00;82.80;;;1.23;45.47;101123.34;5038048;28;20064;-77
2024/01/21 06:19:08;;;;;;;3.63;1.98;;;1.10;81.70;;;1.40;44.43;101117.22;5036827;28;20381;-77
2024/01/21 06:21:40;;;;;;;6.85;2.65;;;1.30;79.20;;;1.43;44.29;101086.50;5037725;28;20037;-77
2024/01/21 06:24:05;;;;;;;5.15;2.83;;;1.40;78.80;;;1.49;44.34;101080.53;5033566;28;20073;-76
2024/01/21 06:26:31;;;;;;;5.43;2.10;;;1.50;78.90;;;1.58;43.76;101055.44;5032446;28;20382;-77
2024/01/21 06:28:57;;;;;;;5.43;2.28;;;1.50;78.30;;;1.78;42.28;101033.00;5028950;28;20504;-78
2024/01/21 06:31:23;;;;;;;5.47;2.35;;;1.70;76.30;;;1.98;41.63;101031.06;5051787;28;20041;-78
2024/01/21 06:33:49;;;;;;;6.13;2.63;;;1.90;75.80;;;1.91;41.01;100993.13;5035903;28;20119;-78
2024/01/21 06:36:14;;;;;;;4.10;2.00;;;2.00;75.40;;;2.01;41.25;101006.53;5033231;28;20136;-78
2024/01/21 06:38:40;;;;;;;5.30;2.20;;;1.90;75.40;;;2.06;40.57;100974.59;5034278;28;20046;-77
2024/01/21 06:41:06;;;;;;;6.15;2.20;;;2.00;73.90;;;2.04;40.51;100973.09;5058000;28;20036;-76
2024/01/21 06:43:32;;;;;;;7.15;2.05;;;2.10;74.20;;;2.14;40.56;100965.78;5053792;28;20128;-77
2024/01/21 06:45:58;;;;;;;4.53;2.15;;;2.10;73.80;;;2.07;39.67;100916.25;5024493;28;20096;-76
2024/01/21 06:48:23;;;;;;;4.60;2.30;;;2.10;72.70;;;2.23;39.99;100946.00;5001186;28;20126;-77
2024/01/21 06:50:50;;;;;;;5.68;2.60;;;2.10;73.70;;;2.23;40.34;100934.41;5034542;28;20034;-76
2024/01/21 06:53:16;;;;;;;5.00;2.45;;;2.10;73.70;;;2.26;39.63;100907.16;5034197;28;20033;-76
2024/01/21 06:55:45;;;;;;;6.63;2.55;;;2.20;72.20;;;2.10;40.20;100900.63;5038074;28;20041;-76
2024/01/21 06:58:12;;;;;;;4.05;1.98;;;2.20;73.60;;;2.01;40.81;100921.25;5033662;28;20043;-76
2024/01/21 07:00:37;;;;;;;6.88;2.38;;;2.00;74.50;;;2.04;40.61;100930.84;5034783;28;20042;-77
2024/01/21 07:03:04;;;;;;;6.38;2.72;;;2.00;74.10;;;1.90;41.13;100912.56;5044592;28;20461;-78
2024/01/21 07:05:29;;;;;;;3.95;1.92;;;1.90;74.90;;;1.92;41.46;100902.50;5031223;28;20144;-78
2024/01/21 07:07:56;;;;;;;4.07;2.28;;;1.90;74.70;;;1.97;40.87;100922.53;5038641;28;20160;-77
2024/01/21 07:10:23;;;;;;;5.95;2.75;;;1.90;74.00;;;1.99;40.74;100922.41;5029101;28;20061;-77
2024/01/21 07:12:49;;;;;;;5.72;2.63;;;1.90;74.30;;;1.83;41.31;100894.31;5035415;28;20435;-78
2024/01/21 07:15:15;;;;;;;5.75;2.40;;;1.90;74.70;;;1.94;41.15;100935.47;5035371;28;20057;-75
2024/01/21 07:17:42;;;;;;;4.85;2.58;;;1.90;74.80;;;1.98;41.37;100931.47;5031458;28;20401;-75
2024/01/21 07:20:11;;;;;;;4.68;2.38;;;1.90;74.30;;;1.98;41.58;100942.25;5039567;28;20033;-78
2024/01/21 07:22:38;;;;;;;4.30;2.40;;;1.90;75.10;;;1.89;42.32;100945.84;5033297;28;20060;-78
2024/01/21 07:25:04;;;;;;;4.88;2.50;;;1.80;75.70;;;1.89;42.38;100948.53;5040005;28;20038;-78
2024/01/21 07:27:29;;;;;;;4.88;2.33;;;1.80;76.20;;;1.78;42.40;100933.47;5030674;28;20465;-79
2024/01/21 07:29:55;;;;;;;3.13;1.77;;;1.80;76.40;;;1.70;42.57;100939.59;5033693;28;20040;-77
2024/01/21 07:32:21;;;;;;;6.05;2.53;;;1.80;75.80;;;1.79;42.73;100959.38;5029833;28;20034;-75
2024/01/21 07:34:48;;;;;;;7.07;2.85;;;1.80;75.90;;;1.79;43.18;100965.59;5029135;28;20036;-75
2024/01/21 07:37:14;;;;;;;4.32;2.42;;;1.80;76.20;;;1.91;43.18;100982.34;5027402;28;20057;-75
2024/01/21 07:39:40;;;;;;;5.40;2.70;;;1.80;76.80;;;1.85;43.16;100986.50;5030341;28;20029;-76
2024/01/21 07:42:05;;;;;;;5.57;2.97;;;1.80;77.30;;;1.86;43.14;100993.59;5031610;28;20045;-75
2024/01/21 07:44:31;;;;;;;6.90;2.40;;;1.80;76.80;;;1.90;43.02;100986.06;5032847;28;20052;-76
2024/01/21 07:46:57;;;;;;;5.60;2.28;;;1.80;76.70;;;1.80;43.35;100985.28;5037845;28;20091;-76
2024/01/21 07:49:22;;;;;;;7.22;2.42;;;1.80;77.20;;;1.85;42.55;100948.00;5030318;28;20048;-76
2024/01/21 07:51:48;;;;;;;6.05;2.33;;;1.90;75.30;;;1.90;42.69;100982.53;5028850;28;20034;-76
2024/01/21 07:54:14;;;;;;;6.90;2.85;;;1.90;75.90;;;1.89;43.20;100986.22;5028782;28;20361;-77
2024/01/21 07:56:39;;;;;;;6.63;2.97;;;1.90;77.30;;;1.72;43.48;100968.06;5029701;28;20042;-77
2024/01/21 07:59:05;;;;;;;5.18;2.28;;;1.90;77.30;;;1.75;43.53;101004.56;5030204;28;20067;-78
2024/01/21 08:01:31;;;;;;;5.05;2.42;;;1.80;77.50;;;1.66;43.35;101000.91;5000780;28;20044;-81
2024/01/21 08:03:57;;;;;;;7.18;2.85;;;1.80;76.50;;;1.85;43.12;101005.31;5012381;28;20480;-78
2024/01/21 08:06:22;;;;;;;6.25;2.70;;;1.90;76.90;;;1.90;42.82;100995.97;5029948;28;20063;-79
2024/01/21 08:08:48;;;;;;;5.35;2.50;;;1.90;76.20;;;1.88;42.35;100973.75;5045168;28;20042;-78
2024/01/21 08:11:14;;;;;;;5.72;2.85;;;2.00;75.30;;;1.96;42.48;100995.38;5029155;28;20034;-78
2024/01/21 08:13:39;;;;;;;5.28;2.72;;;2.00;76.70;;;2.08;42.01;100985.22;5029349;28;20504;-78
2024/01/21 08:16:05;;;;;;;5.88;2.75;;;2.00;75.60;;;2.09;42.43;100990.44;5028881;28;20045;-77
2024/01/21 08:18:31;;;;;;;6.00;3.08;;;2.00;76.00;;;2.19;42.81;101003.84;5027268;28;20049;-76
2024/01/21 08:20:57;;;;;;;6.57;2.80;;;2.00;77.10;;;2.09;42.42;100982.38;5029776;28;20033;-75
2024/01/21 08:23:24;;;;;;;5.70;3.13;;;2.00;75.70;;;2.07;41.60;100984.38;5028791;28;20396;-76
2024/01/21 08:25:50;;;;;;;5.35;2.80;;;2.00;76.00;;;2.05;41.48;100961.31;5008462;28;20065;-76
2024/01/21 08:28:16;;;;;;;8.50;3.10;;;2.10;74.20;;;2.14;41.52;100977.41;5029805;28;20036;-77
2024/01/21 08:30:42;;;;;;;4.80;2.38;;;2.20;74.10;;;2.07;41.39;100943.16;5027462;28;20384;-77
2024/01/21 08:33:08;;;;;;;5.20;2.28;;;2.20;73.90;;;2.17;41.34;100945.78;5029579;28;20051;-79
2024/01/21 08:35:33;;;;;;;6.68;2.70;;;2.20;73.80;;;2.27;41.42;100968.09;5011240;28;20445;-78
2024/01/21 08:38:00;;;;;;;6.05;2.55;;;2.20;74.40;;;2.32;41.30;100944.22;5028815;28;20040;-79
2024/01/21 08:40:25;;;;;;;6.75;2.80;;;2.20;75.70;;;2.21;40.91;100928.31;5027468;28;20071;-79
2024/01/21 08:42:51;;;;;;;4.55;2.42;;;2.20;74.50;;;2.26;41.84;100940.31;5029326;28;20055;-79
2024/01/21 08:45:17;;;;;;;5.57;2.58;;;2.10;75.20;;;2.32;41.23;100932.63;5044553;28;20040;-79
2024/01/21 08:47:43;;;;;;;5.25;2.13;;;2.20;74.30;;;2.32;40.95;100924.53;5029306;28;20403;-80
2024/01/21 08:50:09;;;;;;;5.85;2.95;;;2.20;73.20;;;2.54;40.55;100926.75;5044216;28;20554;-79
2024/01/21 08:52:35;;;;;;;5.57;2.97;;;2.30;74.10;;;2.55;40.46;100925.75;5029317;28;20041;-80
2024/01/21 08:55:01;;;;;;;6.18;2.67;;;2.40;73.90;;;2.62;40.45;100912.47;5029550;28;20044;-80
2024/01/21 08:57:26;;;;;;;9.68;2.28;;;2.40;74.10;;;2.38;41.06;100910.44;5029926;28;20044;-79
2024/01/21 08:59:52;;;;;;;5.45;2.28;;;2.30;74.10;;;2.43;40.81;100886.56;5029419;28;20092;-78
2024/01/21 09:02:18;;;;;;;6.47;2.70;;;2.40;73.90;;;2.51;41.36;100921.63;5028115;28;20041;-77
2024/01/21 09:04:45;;;;;;;5.68;2.92;;;2.40;74.90;;;2.60;41.16;100911.78;5044875;28;20109;-78
2024/01/21 09:07:11;;;;;;;4.85;2.30;;;2.40;74.30;;;2.49;41.23;100885.13;5027924;28;20033;-78
2024/01/21 09:09:37;;;;;;;4.55;2.28;;;2.40;74.10;;;2.32;41.08;100847.28;5029382;28;20451;-78
2024/01/21 09:12:03;;;;;;;4.65;2.70;;;2.40;74.00;;;2.61;41.66;100905.38;5029828;28;20064;-80
2024/01/21 09:14:28;;;;;;;5.55;2.20;;;2.40;74.50;;;2.43;41.72;100878.50;5012183;28;20044;-80
2024/01/21 09:16:54;;;;;;;3.63;2.00;;;2.40;74.50;;;2.51;41.29;100829.22;5029472;28;20477;-79
2024/01/21 09:19:20;;;;;;;3.95;2.38;;;2.50;74.00;;;2.57;41.21;100855.53;5029529;28;20041;-77
2024/01/21 09:21:45;;;;;;;6.43;2.35;;;2.50;74.20;;;2.43;41.49;100847.03;5029863;28;20037;-79
2024/01/21 09:24:14;;;;;;;7.47;2.70;;;2.50;74.80;;;2.47;41.78;100895.19;5043865;28;20505;-77
2024/01/21 09:26:40;;;;;;;4.78;2.20;;;2.50;75.20;;;2.41;41.82;100911.00;5029250;28;20030;-79
2024/01/21 09:29:05;;;;;;;4.47;2.22;;;2.50;75.60;;;2.39;41.88;100902.22;5029059;28;20040;-79
2024/01/21 09:31:31;;;;;;;4.68;2.40;;;2.40;75.60;;;2.49;43.11;100920.13;5027756;28;20363;-80
2024/01/21 09:33:57;;;;;;;4.18;2.28;;;2.40;76.60;;;2.39;42.73;100917.53;5029155;28;20178;-79
2024/01/21 09:36:23;;;;;;;7.60;3.22;;;2.30;76.60;;;2.45;43.47;100954.59;5011864;28;20044;-80
2024/01/21 09:38:52;;;;;;;7.35;2.58;;;2.30;77.30;;;2.51;43.96;100969.28;5029108;28;20554;-79
2024/01/21 09:41:40;;;;;;;10.02;2.78;;;2.20;77.70;;;2.51;43.23;100955.81;5018564;28;20099;-79
2024/01/21 09:44:06;;;;;;;4.68;2.60;;;2.30;77.20;;;2.44;43.61;100956.47;5008229;28;20068;-79
2024/01/21 09:46:32;;;;;;;5.97;2.58;;;2.30;77.60;;;2.51;43.26;100945.06;5044867;28;20038;-79
2024/01/21 09:49:01;;;;;;;6.60;3.20;;;2.40;77.20;;;2.52;42.73;100933.28;5008749;28;20042;-80
2024/01/21 09:51:32;;;;;;;4.85;2.60;;;2.40;76.90;;;2.49;43.64;100939.81;5047765;28;20075;-80
2024/01/21 09:54:00;;;;;;;5.15;2.40;;;2.40;77.80;;;2.53;43.38;100925.06;5033068;28;20029;-75
2024/01/21 09:56:26;;;;;;;5.82;3.03;;;2.40;77.80;;;2.69;43.36;100945.88;5028446;28;20029;-81
2024/01/21 09:58:54;;;;;;;5.78;2.70;;;2.40;77.90;;;2.80;43.74;100965.47;5030944;28;20448;-78
2024/01/21 10:01:21;;;;;;;;;;;2.50;78.20;;;2.93;43.61;100965.03;5033157;28;20036;-77
2024/01/21 10:03:47;;;;;;;5.55;2.80;;;2.60;77.10;;;3.13;42.74;101000.72;5032439;28;19924;-78
2024/01/21 10:06:13;;;;;;;6.53;2.50;;;2.70;77.50;;;3.36;43.08;101021.75;5047822;28;20038;-78
2024/01/21 10:08:40;;;;;;;5.15;2.60;;;2.80;77.50;;;3.49;42.26;101008.69;5032494;28;20044;-79
2024/01/21 10:11:07;;;;;;;5.30;2.72;;;2.90;76.60;;;3.56;41.88;101022.34;5032394;28;20030;-80
2024/01/21 10:13:36;;;;;;;5.18;2.60;;;3.00;76.20;;;3.67;41.53;101023.91;5031844;28;20041;-79
2024/01/21 10:16:02;;;;;;;4.72;2.70;;;3.00;76.60;;;3.70;41.93;101021.75;5026834;28;20480;-79
2024/01/21 10:18:28;;;;;;;8.15;3.15;;;3.10;76.20;;;3.66;41.91;101019.53;5014459;28;20366;-79
2024/01/21 10:20:57;;;;;;;5.93;2.75;;;3.10;77.20;;;3.41;41.82;100987.91;5032217;28;20092;-78
2024/01/21 10:23:23;;;;;;;5.53;2.72;;;3.20;75.90;;;3.45;42.81;101000.06;5014232;28;20078;-78